Time;durP1;ratioP1;P1;durP2;ratioP2;P2;SDS_P1;SDS_P2;PMS_P1;PMS_P2;Temp;Humidity;BMP_temperature;BMP_pressure;BME280_temperature;BME280_humidity;BME280_pressure;Samples;Min_cycle;Max_cycle;Signal;HPM_P1;HPM_P2
2021/12/04 00:00:44;;;;;;;50.95;33.63;;;;;;;4.30;100.00;99881.22;4814025;29;20039;-72
2021/12/04 00:03:10;;;;;;;50.13;32.40;;;;;;;4.34;100.00;99879.81;4815542;29;20726;-72
2021/12/04 00:05:36;;;;;;;48.78;32.67;;;;;;;4.37;100.00;99874.09;4818777;28;20071;-72
2021/12/04 00:08:02;;;;;;;52.95;32.47;;;;;;;4.37;100.00;99876.75;4832654;29;20054;-72
2021/12/04 00:10:29;;;;;;;59.38;35.53;;;;;;;4.35;100.00;99878.78;4820080;28;20086;-72
2021/12/04 00:12:55;;;;;;;55.25;35.67;;;;;;;4.26;100.00;99861.31;4832014;28;20035;-72
2021/12/04 00:15:20;;;;;;;62.15;35.75;;;;;;;4.30;100.00;99868.72;4801652;29;20041;-72
2021/12/04 00:17:45;;;;;;;59.45;35.40;;;;;;;4.35;100.00;99851.31;4799079;29;20078;-72
2021/12/04 00:20:11;;;;;;;58.55;36.58;;;;;;;4.33;100.00;99862.19;4812718;29;20673;-72
2021/12/04 00:22:37;;;;;;;60.33;37.25;;;;;;;4.30;100.00;99857.22;4810837;28;20871;-72
2021/12/04 00:25:05;;;;;;;59.40;36.75;;;;;;;4.37;100.00;99857.28;4785109;29;20074;-72
2021/12/04 00:27:30;;;;;;;63.10;36.92;;;;;;;4.35;100.00;99859.28;4813825;29;20120;-73
2021/12/04 00:29:57;;;;;;;63.00;36.55;;;;;;;4.33;100.00;99851.50;4826754;28;20581;-72
2021/12/04 00:32:34;;;;;;;75.00;39.92;;;;;;;4.35;100.00;99851.31;4805828;29;22521;-72
2021/12/04 00:35:11;;;;;;;64.88;37.00;;;;;;;4.30;100.00;99841.22;4815518;29;20453;-72
2021/12/04 00:51:03;;;;;;;74.95;37.22;;;;;;;4.29;100.00;99843.09;4831280;29;20123;-72
2021/12/04 00:53:28;;;;;;;70.43;39.50;;;;;;;4.28;100.00;99837.94;4770127;29;30417;-72
2021/12/04 00:55:54;;;;;;;72.43;38.40;;;;;;;4.28;100.00;99848.59;4829117;28;20166;-72
2021/12/04 00:58:19;;;;;;;70.63;37.60;;;;;;;4.29;100.00;99850.25;4817182;29;20035;-72
2021/12/04 01:00:45;;;;;;;73.00;37.92;;;;;;;4.29;100.00;99850.25;4815798;29;22994;-72
2021/12/04 01:03:10;;;;;;;71.45;39.70;;;;;;;4.30;100.00;99841.22;4787079;29;20058;-72
2021/12/04 01:05:36;;;;;;;71.45;38.45;;;;;;;4.27;100.00;99833.63;4835119;28;24038;-72
2021/12/04 01:08:01;;;;;;;81.22;39.55;;;;;;;4.24;100.00;99836.69;4834417;29;20034;-71
2021/12/04 01:10:27;;;;;;;80.53;39.65;;;;;;;4.25;100.00;99833.00;4833550;29;20471;-72
2021/12/04 01:12:56;;;;;;;68.68;37.95;;;;;;;4.22;100.00;99844.06;4834749;29;22167;-72
2021/12/04 01:15:21;;;;;;;80.55;40.45;;;;;;;4.26;100.00;99846.13;4826625;28;25112;-72
2021/12/04 01:17:47;;;;;;;73.70;40.65;;;;;;;4.22;100.00;99838.75;4825689;28;20047;-72
2021/12/04 01:20:12;;;;;;;73.57;38.03;;;;;;;4.22;100.00;99844.06;4833386;28;20153;-72
2021/12/04 01:22:39;;;;;;;77.00;40.20;;;;;;;4.25;100.00;99846.34;4818847;28;20055;-72
2021/12/04 01:25:05;;;;;;;71.10;37.30;;;;;;;4.28;100.00;99844.09;4834760;29;20103;-72
2021/12/04 01:27:30;;;;;;;82.22;40.75;;;;;;;4.27;100.00;99842.44;4798752;29;20067;-72
2021/12/04 01:30:19;;;;;;;76.57;39.97;;;;;;;4.29;100.00;99844.94;4823197;28;20062;-72
2021/12/04 01:32:44;;;;;;;78.57;39.47;;;;;;;4.24;100.00;99842.00;4815348;29;20042;-73
2021/12/04 01:35:10;;;;;;;81.80;38.90;;;;;;;4.27;100.00;99830.97;4827882;29;20031;-72
2021/12/04 01:37:35;;;;;;;73.10;38.53;;;;;;;4.25;100.00;99817.84;4814444;29;20724;-72
2021/12/04 01:40:01;;;;;;;79.68;40.08;;;;;;;4.24;100.00;99828.69;4797815;29;21001;-72
2021/12/04 01:42:27;;;;;;;76.03;39.03;;;;;;;4.22;100.00;99822.75;4818495;28;20062;-72
2021/12/04 01:44:52;;;;;;;80.95;39.13;;;;;;;4.24;100.00;99836.69;4814429;29;20035;-72
2021/12/04 01:47:20;;;;;;;71.65;38.55;;;;;;;4.24;100.00;99836.69;4828450;28;20716;-72
2021/12/04 01:49:48;;;;;;;78.63;39.65;;;;;;;4.20;100.00;99844.25;4813697;28;20677;-72
2021/12/04 01:52:15;;;;;;;88.47;39.55;;;;;;;4.23;100.00;99829.72;4815916;29;22915;-72
2021/12/04 01:54:40;;;;;;;86.10;40.42;;;;;;;4.27;100.00;99838.97;4816500;29;20054;-72
2021/12/04 01:57:06;;;;;;;81.25;40.17;;;;;;;4.30;100.00;99833.25;4816108;29;20031;-72
2021/12/04 01:59:31;;;;;;;83.22;38.95;;;;;;;4.23;100.00;99843.03;4815622;29;20555;-72
2021/12/04 02:01:57;;;;;;;77.55;38.53;;;;;;;4.23;100.00;99824.38;4829413;28;20047;-72
2021/12/04 02:04:23;;;;;;;80.72;40.65;;;;;;;4.25;100.00;99817.84;4830299;28;20221;-72
2021/12/04 02:06:48;;;;;;;76.78;38.42;;;;;;;4.24;100.00;99812.69;4793646;29;20081;-74
2021/12/04 02:09:14;;;;;;;75.85;38.00;;;;;;;4.21;100.00;99810.41;4832502;29;20039;-71
2021/12/04 02:11:39;;;;;;;75.80;38.67;;;;;;;4.25;100.00;99809.03;4833575;29;20186;-71
2021/12/04 02:14:06;;;;;;;79.57;38.72;;;;;;;4.18;100.00;99821.50;4816821;28;20138;-72
2021/12/04 02:16:31;;;;;;;84.63;38.13;;;;;;;4.15;100.00;99821.88;4813232;28;20043;-71
2021/12/04 02:18:57;;;;;;;85.20;38.50;;;;;;;4.12;100.00;99828.41;4830698;29;20131;-72
2021/12/04 02:21:22;;;;;;;83.38;38.28;;;;;;;4.17;100.00;99827.81;4827836;29;20035;-71
2021/12/04 02:23:48;;;;;;;75.30;37.20;;;;;;;4.17;100.00;99827.81;4813033;29;20448;-73
2021/12/04 02:26:14;;;;;;;92.47;40.78;;;;;;;4.09;100.00;99827.97;4827457;28;20279;-73
2021/12/04 02:28:46;;;;;;;90.85;39.40;;;;;;;4.12;100.00;99827.59;4832555;28;20069;-73
2021/12/04 02:31:12;;;;;;;87.57;37.80;;;;;;;4.10;100.00;99814.44;4814990;29;20043;-73
2021/12/04 02:33:38;;;;;;;74.40;36.50;;;;;;;4.03;100.00;99817.06;4817792;28;20186;-73
2021/12/04 02:36:06;;;;;;;80.35;35.13;;;;;;;4.16;100.00;99818.19;4829236;29;21087;-73
2021/12/04 02:38:32;;;;;;;83.20;36.50;;;;;;;4.14;100.00;99812.22;4813001;29;20050;-73
2021/12/04 02:41:00;;;;;;;84.38;34.58;;;;;;;4.15;100.00;99800.56;4811253;29;20265;-72
2021/12/04 02:43:27;;;;;;;70.07;33.35;;;;;;;4.11;100.00;99793.94;4813332;29;20632;-73
2021/12/04 02:45:52;;;;;;;76.45;34.17;;;;;;;4.15;100.00;99795.22;4808715;29;21974;-73
2021/12/04 02:48:18;;;;;;;77.85;35.25;;;;;;;4.10;100.00;99802.97;4832945;28;20047;-73
2021/12/04 02:50:44;;;;;;;88.10;35.92;;;;;;;4.11;100.00;99796.63;4825865;28;20046;-73
2021/12/04 02:53:10;;;;;;;73.45;34.80;;;;;;;4.10;100.00;99801.13;4818111;28;20043;-73
2021/12/04 02:55:36;;;;;;;86.53;34.67;;;;;;;4.04;100.00;99786.75;4824325;28;20035;-73
2021/12/04 02:58:02;;;;;;;85.25;35.00;;;;;;;4.15;100.00;99776.56;4831106;29;20498;-73
2021/12/04 03:00:27;;;;;;;76.63;33.72;;;;;;;4.15;100.00;99784.56;4817683;28;22857;-73
2021/12/04 03:02:55;;;;;;;76.88;33.88;;;;;;;4.14;100.00;99782.91;4813973;29;20066;-72
2021/12/04 03:05:24;;;;;;;78.97;32.10;;;;;;;4.18;100.00;99773.50;4809210;29;20062;-73
2021/12/04 03:07:54;;;;;;;71.82;34.80;;;;;;;4.17;100.00;99774.50;4819844;28;20158;-73
2021/12/04 03:10:20;;;;;;;77.45;35.03;;;;;;;4.20;100.00;99776.78;4815497;29;20403;-73
2021/12/04 03:12:46;;;;;;;82.40;35.03;;;;;;;4.14;100.00;99775.75;4804942;29;20367;-72
2021/12/04 03:15:11;;;;;;;76.53;33.45;;;;;;;4.14;100.00;99772.25;4830111;29;20682;-72
2021/12/04 03:17:37;;;;;;;61.65;31.52;;;;;;;4.19;100.00;99770.63;4815009;29;24358;-73
2021/12/04 03:20:04;;;;;;;67.32;32.03;;;;;;;4.15;100.00;99765.91;4809679;28;22980;-72
2021/12/04 03:22:30;;;;;;;67.63;33.45;;;;;;;4.14;100.00;99758.91;4815430;29;20125;-72
2021/12/04 03:24:56;;;;;;;71.55;33.10;;;;;;;4.19;100.00;99749.31;4806986;28;20458;-73
2021/12/04 03:27:23;;;;;;;69.95;34.08;;;;;;;4.16;100.00;99748.88;4818206;28;20828;-72
2021/12/04 03:29:54;;;;;;;59.05;31.80;;;;;;;4.16;100.00;99749.69;4795871;29;20055;-72
2021/12/04 03:42:59;;;;;;;61.28;30.77;;;;;;;4.12;100.00;99745.78;4788301;29;20585;-72
2021/12/04 03:45:25;;;;;;;54.60;31.08;;;;;;;4.11;100.00;99735.31;4771345;29;25539;-72
2021/12/04 03:47:57;;;;;;;56.33;30.23;;;;;;;4.14;100.00;99732.25;4790512;29;20040;-72
2021/12/04 03:50:23;;;;;;;56.03;30.05;;;;;;;4.11;100.00;99735.31;4770418;29;20642;-72
2021/12/04 03:52:48;;;;;;;55.55;30.20;;;;;;;4.11;100.00;99735.31;4774043;29;20028;-72
2021/12/04 03:55:14;;;;;;;58.75;31.20;;;;;;;4.14;100.00;99737.59;4792482;29;20514;-71
2021/12/04 03:57:45;;;;;;;55.58;32.25;;;;;;;4.14;100.00;99743.78;4788256;29;20091;-72
2021/12/04 04:00:13;;;;;;;53.58;30.80;;;;;;;4.10;100.00;99737.16;4772442;29;20032;-72
2021/12/04 04:02:38;;;;;;;58.92;30.85;;;;;;;4.13;100.00;99727.97;4778670;29;20346;-72
2021/12/04 04:05:05;;;;;;;65.22;31.70;;;;;;;4.08;100.00;99728.56;4777459;29;20481;-72
2021/12/04 04:07:30;;;;;;;56.05;31.42;;;;;;;4.07;100.00;99730.41;4776159;29;20070;-72
2021/12/04 04:09:56;;;;;;;67.28;33.30;;;;;;;4.08;100.00;99731.22;4786961;29;21674;-72
2021/12/04 04:12:21;;;;;;;56.53;30.92;;;;;;;4.11;100.00;99730.84;4781851;29;20799;-72
2021/12/04 04:14:47;;;;;;;52.05;28.90;;;;;;;4.10;100.00;99728.34;4792142;29;20036;-72
2021/12/04 04:17:12;;;;;;;56.90;31.02;;;;;;;4.06;100.00;99723.41;4772957;29;20092;-72
2021/12/04 04:19:38;;;;;;;58.28;28.05;;;;;;;4.07;100.00;99722.41;4794474;29;20876;-71
2021/12/04 04:22:04;;;;;;;55.85;29.27;;;;;;;4.04;100.00;99729.97;4761310;29;25002;-74
2021/12/04 04:24:31;;;;;;;54.63;29.65;;;;;;;4.05;100.00;99732.44;4780661;29;21877;-73
2021/12/04 04:26:57;;;;;;;50.33;27.60;;;;;;;4.10;100.00;99734.50;4780066;29;20351;-72
2021/12/04 04:29:24;;;;;;;56.75;29.70;;;;;;;4.11;100.00;99732.66;4768946;29;25624;-72
2021/12/04 04:31:50;;;;;;;54.35;28.83;;;;;;;4.04;100.00;99725.47;4794593;29;20044;-72
2021/12/04 04:34:23;;;;;;;53.20;27.88;;;;;;;4.02;100.00;99727.50;4794984;29;20715;-72
2021/12/04 04:39:54;;;;;;;53.58;28.08;;;;;;;4.09;100.00;99726.72;4796949;29;24254;-72
2021/12/04 05:01:27;;;;;;;54.88;27.63;;;;;;;4.00;100.00;99705.56;4761640;29;20552;-72
2021/12/04 05:14:31;;;;;;;57.78;27.98;;;;;;;3.95;100.00;99709.84;4793822;29;20968;-72
2021/12/04 05:22:12;;;;;;;59.13;28.50;;;;;;;3.96;100.00;99696.31;4765916;29;22197;-72
2021/12/04 05:24:38;;;;;;;58.10;27.48;;;;;;;3.96;100.00;99695.47;4776155;29;20539;-72
2021/12/04 05:27:04;;;;;;;51.40;27.70;;;;;;;3.92;100.00;99688.91;4791896;29;20055;-74
2021/12/04 05:29:30;;;;;;;56.28;28.38;;;;;;;3.95;100.00;99678.69;4775544;29;20060;-74
2021/12/04 05:31:56;;;;;;;56.00;27.05;;;;;;;3.97;100.00;99692.63;4814853;29;20142;-74
2021/12/04 05:34:21;;;;;;;60.35;27.80;;;;;;;3.97;100.00;99691.81;4814058;28;20656;-74
2021/12/04 05:36:47;;;;;;;51.80;25.73;;;;;;;3.90;100.00;99683.78;4796330;29;20047;-74
2021/12/04 05:39:13;;;;;;;53.47;27.02;;;;;;;3.91;100.00;99676.63;4804612;29;20661;-74
2021/12/04 05:41:39;;;;;;;50.20;25.85;;;;;;;3.97;100.00;99687.31;4791546;29;20589;-73
2021/12/04 05:44:06;;;;;;;54.35;26.20;;;;;;;3.93;100.00;99678.06;4818214;29;20632;-73
2021/12/04 05:46:39;;;;;;;48.45;26.23;;;;;;;3.93;100.00;99678.06;4834445;29;20163;-72
2021/12/04 05:49:17;;;;;;;50.22;25.80;;;;;;;3.88;100.00;99677.81;4826305;28;26104;-74
2021/12/04 05:56:54;;;;;;;48.22;25.17;;;;;;;3.80;100.00;99670.84;4833632;28;20106;-73
2021/12/04 05:59:19;;;;;;;53.08;25.92;;;;;;;3.76;100.00;99658.94;4833238;29;20716;-73
2021/12/04 06:01:45;;;;;;;50.33;25.88;;;;;;;3.78;100.00;99666.72;4803303;28;22644;-74
2021/12/04 06:04:10;;;;;;;55.80;26.05;;;;;;;3.74;100.00;99660.13;4815232;28;24048;-71
2021/12/04 06:06:36;;;;;;;56.65;26.27;;;;;;;3.70;100.00;99662.38;4829172;28;20852;-71
2021/12/04 06:09:03;;;;;;;68.40;27.55;;;;;;;3.67;100.00;99665.44;4823840;29;20083;-71
2021/12/04 06:11:29;;;;;;;53.90;24.52;;;;;;;3.71;100.00;99665.84;4816351;29;20122;-72
2021/12/04 06:13:55;;;;;;;56.60;25.40;;;;;;;3.70;100.00;99674.88;4828941;28;20039;-72
2021/12/04 06:16:21;;;;;;;63.10;26.35;;;;;;;3.72;100.00;99683.47;4834008;28;23399;-72
2021/12/04 06:18:51;;;;;;;57.25;25.30;;;;;;;3.72;100.00;99679.00;4816674;28;20767;-72
2021/12/04 06:24:00;;;;;;;55.90;25.73;;;;;;;3.75;100.00;99672.44;4815303;29;20031;-72
2021/12/04 06:26:26;;;;;;;49.78;24.67;;;;;;;3.79;100.00;99679.00;4828446;28;20529;-72
2021/12/04 06:28:51;;;;;;;56.83;25.38;;;;;;;3.78;100.00;99677.38;4823400;29;20246;-72
2021/12/04 06:31:17;;;;;;;56.25;23.98;;;;;;;3.78;100.00;99677.38;4835146;29;20570;-72
2021/12/04 06:33:43;;;;;;;66.93;26.58;;;;;;;3.75;100.00;99685.75;4803517;29;20047;-72
2021/12/04 06:36:09;;;;;;;58.70;25.05;;;;;;;3.75;100.00;99680.41;4832844;28;20085;-72
2021/12/04 06:38:35;;;;;;;53.03;26.38;;;;;;;3.80;100.00;99686.81;4812999;28;22926;-72
2021/12/04 06:41:00;;;;;;;59.20;26.45;;;;;;;3.85;100.00;99683.53;4821252;29;20142;-72
2021/12/04 06:43:26;;;;;;;62.22;26.13;;;;;;;3.83;100.00;99681.09;4798750;29;20170;-72
2021/12/04 06:46:03;;;;;;;64.82;26.98;;;;;;;3.79;100.00;99676.34;4808569;29;20055;-72
2021/12/04 06:48:38;;;;;;;63.25;25.85;;;;;;;3.83;100.00;99680.28;4833200;28;21856;-73
2021/12/04 06:51:10;;;;;;;59.72;25.75;;;;;;;3.83;100.00;99680.28;4815904;28;20039;-73
2021/12/04 06:53:47;;;;;;;68.10;25.88;;;;;;;3.83;100.00;99680.28;4803594;29;20092;-73
2021/12/04 06:56:13;;;;;;;61.88;26.52;;;;;;;3.84;100.00;99673.91;4815937;29;21855;-73
2021/12/04 06:58:39;;;;;;;60.10;26.17;;;;;;;3.81;100.00;99671.66;4828811;28;20047;-73
2021/12/04 07:01:10;;;;;;;69.13;27.25;;;;;;;3.82;100.00;99668.78;4813863;29;20035;-73
2021/12/04 07:03:36;;;;;;;74.65;26.73;;;;;;;3.87;100.00;99665.53;4833257;29;20106;-73
2021/12/04 07:06:01;;;;;;;70.25;27.15;;;;;;;3.83;100.00;99664.28;4817167;28;20048;-73
2021/12/04 07:08:27;;;;;;;70.65;27.35;;;;;;;3.93;100.00;99664.75;4832191;29;20225;-72
2021/12/04 07:10:53;;;;;;;66.53;27.38;;;;;;;3.95;100.00;99662.69;4828649;28;20265;-72
2021/12/04 07:13:18;;;;;;;62.00;26.67;;;;;;;3.97;100.00;99667.84;4822915;28;20055;-72
2021/12/04 07:15:45;;;;;;;66.57;27.42;;;;;;;3.92;100.00;99656.94;4830004;28;20034;-72
2021/12/04 07:18:11;;;;;;;78.10;29.85;;;;;;;3.92;100.00;99655.09;4795037;29;20505;-72
2021/12/04 07:20:37;;;;;;;63.83;25.45;;;;;;;3.92;100.00;99655.09;4806234;28;20047;-73
2021/12/04 07:23:02;;;;;;;61.08;25.77;;;;;;;3.92;100.00;99652.44;4815115;29;20201;-73
2021/12/04 07:25:28;;;;;;;67.43;28.35;;;;;;;3.92;100.00;99657.75;4817605;28;20147;-73
2021/12/04 07:27:54;;;;;;;71.32;26.88;;;;;;;3.91;100.00;99650.78;4831935;29;20646;-73
2021/12/04 07:30:20;;;;;;;67.30;26.58;;;;;;;3.93;100.00;99651.44;4827193;28;20456;-74
2021/12/04 07:32:46;;;;;;;74.97;27.33;;;;;;;3.88;100.00;99639.72;4823901;28;20530;-73
2021/12/04 07:35:12;;;;;;;74.15;27.13;;;;;;;3.89;100.00;99646.69;4831452;29;24662;-73
2021/12/04 07:37:37;;;;;;;71.93;27.45;;;;;;;3.95;100.00;99638.72;4810250;29;22074;-71
2021/12/04 07:40:03;;;;;;;68.25;27.90;;;;;;;3.91;100.00;99639.31;4813578;29;21182;-73
2021/12/04 07:42:29;;;;;;;66.88;28.63;;;;;;;3.97;100.00;99634.03;4829509;28;20494;-73
2021/12/04 07:44:54;;;;;;;65.90;26.30;;;;;;;3.98;100.00;99640.16;4818585;28;20534;-74
2021/12/04 07:47:21;;;;;;;68.75;27.70;;;;;;;3.94;100.00;99629.09;4831603;28;20778;-73
2021/12/04 07:49:46;;;;;;;71.63;26.92;;;;;;;3.89;100.00;99636.03;4830574;28;20062;-71
2021/12/04 07:52:12;;;;;;;61.25;27.60;;;;;;;3.89;100.00;99631.50;4817938;29;20253;-71
2021/12/04 07:54:38;;;;;;;64.40;27.88;;;;;;;3.97;100.00;99627.88;4832704;29;20032;-71
2021/12/04 07:57:04;;;;;;;64.65;26.92;;;;;;;3.95;100.00;99629.91;4828254;28;22211;-74
2021/12/04 07:59:30;;;;;;;63.85;27.58;;;;;;;3.98;100.00;99640.97;4811784;28;20027;-73
2021/12/04 08:01:57;;;;;;;57.38;27.95;;;;;;;3.94;100.00;99639.75;4781847;29;20655;-71
2021/12/04 08:04:23;;;;;;;52.75;27.20;;;;;;;3.93;100.00;99643.44;4815661;28;20059;-71
2021/12/04 08:06:49;;;;;;;67.28;28.88;;;;;;;4.00;100.00;99636.28;4830799;28;20117;-71
2021/12/04 08:09:15;;;;;;;61.47;27.75;;;;;;;3.97;100.00;99634.03;4812479;28;20450;-71
2021/12/04 08:11:40;;;;;;;54.03;26.38;;;;;;;3.96;100.00;99620.88;4824249;28;20098;-72
2021/12/04 08:14:06;;;;;;;69.97;28.40;;;;;;;3.90;100.00;99624.38;4831363;28;20158;-72
2021/12/04 08:16:32;;;;;;;54.75;26.60;;;;;;;4.00;100.00;99617.63;4828261;28;20039;-72
2021/12/04 08:18:58;;;;;;;55.72;25.88;;;;;;;3.99;100.00;99629.28;4833180;28;20544;-72
2021/12/04 08:21:24;;;;;;;55.83;26.67;;;;;;;3.97;100.00;99627.88;4831671;28;20395;-72
2021/12/04 08:23:50;;;;;;;57.38;27.30;;;;;;;3.95;100.00;99627.25;4781860;29;20047;-72
2021/12/04 08:26:16;;;;;;;51.88;25.52;;;;;;;4.00;100.00;99633.63;4781817;29;20150;-72
2021/12/04 08:28:41;;;;;;;53.55;26.23;;;;;;;4.06;100.00;99626.66;4824050;28;20812;-72
2021/12/04 08:31:07;;;;;;;54.67;24.58;;;;;;;3.99;100.00;99625.81;4811747;28;20112;-72
2021/12/04 08:33:33;;;;;;;55.95;26.02;;;;;;;3.99;100.00;99634.63;4813139;28;20096;-73
2021/12/04 08:36:00;;;;;;;49.65;24.42;;;;;;;4.00;100.00;99638.09;4826646;28;20591;-73
2021/12/04 08:38:26;;;;;;;54.08;25.63;;;;;;;4.02;100.00;99630.75;4822634;29;20081;-73
2021/12/04 08:40:52;;;;;;;55.58;24.88;;;;;;;4.05;100.00;99631.16;4817190;29;20039;-73
2021/12/04 08:43:18;;;;;;;49.67;23.33;;;;;;;4.05;100.00;99625.84;4803635;28;20061;-72
2021/12/04 08:45:43;;;;;;;47.47;22.38;;;;;;;4.10;100.00;99627.06;4815195;29;20043;-73
2021/12/04 08:48:10;;;;;;;46.70;22.13;;;;;;;4.07;100.00;99629.13;4832817;28;20730;-75
2021/12/04 08:50:36;;;;;;;44.50;21.25;;;;;;;4.09;100.00;99631.59;4833468;28;21056;-71
2021/12/04 08:53:03;;;;;;;48.80;21.90;;;;;;;4.12;100.00;99630.38;4818624;29;20492;-74
2021/12/04 08:55:29;;;;;;;44.80;21.55;;;;;;;4.13;100.00;99640.00;4830455;28;20094;-73
2021/12/04 08:57:55;;;;;;;39.10;19.77;;;;;;;4.18;100.00;99640.25;4822602;28;20051;-73
2021/12/04 09:00:24;;;;;;;33.05;19.48;;;;;;;4.20;100.00;99632.84;4817536;29;20150;-73
2021/12/04 09:02:50;;;;;;;31.92;18.23;;;;;;;4.16;100.00;99636.94;4829818;29;20110;-73
2021/12/04 09:05:17;;;;;;;35.90;18.15;;;;;;;4.21;100.00;99635.34;4834112;28;20133;-72
2021/12/04 09:07:42;;;;;;;36.17;18.85;;;;;;;4.22;100.00;99628.97;4828443;28;20127;-72
2021/12/04 09:10:09;;;;;;;33.70;18.25;;;;;;;4.27;100.00;99623.03;4825882;28;20438;-72
2021/12/04 09:12:34;;;;;;;27.83;17.33;;;;;;;4.31;100.00;99627.75;4815970;29;20038;-71
2021/12/04 09:15:02;;;;;;;26.90;16.42;;;;;;;4.35;100.00;99625.50;4806843;29;20082;-72
2021/12/04 09:17:27;;;;;;;29.30;18.75;;;;;;;4.35;100.00;99624.69;4817556;29;20059;-71
2021/12/04 09:19:53;;;;;;;25.85;18.02;;;;;;;4.41;100.00;99627.34;4800388;29;20106;-72
2021/12/04 09:22:27;;;;;;;24.92;17.63;;;;;;;4.38;100.00;99614.44;4810439;29;20092;-71
2021/12/04 09:24:58;;;;;;;25.73;16.23;;;;;;;4.34;100.00;99621.19;4833884;28;20042;-72
2021/12/04 09:27:45;;;;;;;26.92;18.80;;;;;;;4.37;100.00;99626.13;4813194;28;20657;-72
2021/12/04 09:35:31;;;;;;;30.02;18.67;;;;;;;4.44;100.00;99613.63;4819833;28;20047;-72
2021/12/04 10:00:08;;;;;;;26.90;18.33;;;;;;;4.71;100.00;99608.31;4828534;28;20035;-71
2021/12/04 10:13:35;;;;;;;28.83;17.88;;;;;;;4.82;100.00;99588.22;4824353;28;20162;-74
2021/12/04 10:18:57;;;;;;;26.88;17.65;;;;;;;4.80;100.00;99580.41;4831841;29;20755;-73
2021/12/04 10:34:54;;;;;;;25.77;16.42;;;;;;;5.09;100.00;99536.44;4815251;29;20035;-73
2021/12/04 10:37:27;;;;;;;24.10;14.73;;;;;;;5.09;100.00;99536.44;4830334;28;20078;-73
2021/12/04 10:40:06;;;;;;;;;;;;;;;5.07;100.00;99535.00;4822884;28;20121;-73
2021/12/04 10:42:46;;;;;;;23.50;14.48;;;;;;;5.01;100.00;99528.66;4829265;29;19922;-74
2021/12/04 10:45:12;;;;;;;23.13;15.00;;;;;;;4.99;100.00;99531.53;4821124;28;20570;-72
2021/12/04 10:47:38;;;;;;;21.88;14.95;;;;;;;4.98;100.00;99529.91;4819896;29;20381;-73
2021/12/04 10:55:21;;;;;;;21.50;15.40;;;;;;;5.01;100.00;99529.47;4813187;28;20078;-71
2021/12/04 11:03:02;;;;;;;25.90;16.05;;;;;;;5.07;100.00;99519.00;4814047;29;20039;-72
2021/12/04 11:19:07;;;;;;;25.27;15.38;;;;;;;5.00;100.00;99506.47;4807470;29;20098;-73
2021/12/04 11:36:01;;;;;;;31.40;19.10;;;;;;;5.09;100.00;99488.41;4810451;28;20043;-73
2021/12/04 11:38:13;;;;;;;33.15;20.23;;;;;;;5.13;100.00;99496.81;4812725;28;20178;-73
2021/12/04 11:43:15;;;;;;;34.75;20.70;;;;;;;5.23;100.00;99481.19;4810471;29;20114;-73
2021/12/04 11:48:31;;;;;;;36.15;21.75;;;;;;;5.21;100.00;99472.53;4811676;29;20041;-73
2021/12/04 11:50:57;;;;;;;32.03;20.48;;;;;;;5.18;100.00;99475.63;4813299;29;20106;-73
2021/12/04 11:53:23;;;;;;;36.15;21.25;;;;;;;5.16;100.00;99473.19;4814229;29;20118;-72
2021/12/04 11:55:51;;;;;;;37.47;21.88;;;;;;;5.10;100.00;99467.88;4830727;28;20023;-72
2021/12/04 11:58:19;;;;;;;42.85;22.60;;;;;;;5.09;100.00;99466.22;4792315;29;20039;-73
2021/12/04 12:00:46;;;;;;;43.88;23.02;;;;;;;4.98;100.00;99449.84;4813604;29;20038;-73
2021/12/04 12:03:20;;;;;;;38.10;21.95;;;;;;;4.94;100.00;99459.28;4826409;29;20035;-72
2021/12/04 12:06:01;;;;;;;41.58;23.30;;;;;;;4.96;100.00;99462.56;4830256;29;20031;-72
2021/12/04 12:08:33;;;;;;;41.00;22.38;;;;;;;4.97;100.00;99458.03;4815261;29;20031;-73
2021/12/04 12:11:04;;;;;;;37.63;21.63;;;;;;;4.97;100.00;99450.03;4800088;28;20102;-73
2021/12/04 12:13:33;;;;;;;36.85;21.00;;;;;;;4.88;100.00;99444.13;4813325;29;20027;-73
2021/12/04 12:16:21;;;;;;;40.40;21.73;;;;;;;4.95;100.00;99442.25;4825491;28;22103;-73
2021/12/04 12:18:55;;;;;;;38.33;21.88;;;;;;;4.93;100.00;99436.28;4804377;29;20055;-73
2021/12/04 12:21:31;;;;;;;40.40;23.67;;;;;;;4.96;100.00;99441.22;4798147;29;22051;-72
2021/12/04 12:24:13;;;;;;;38.30;21.77;;;;;;;4.90;100.00;99431.38;4814984;29;20145;-73
2021/12/04 12:26:57;;;;;;;48.67;23.10;;;;;;;4.90;100.00;99428.72;4832514;28;21641;-73
2021/12/04 12:38:28;;;;;;;43.38;25.70;;;;;;;5.02;100.00;99411.03;4811330;29;20047;-73
2021/12/04 12:41:02;;;;;;;52.25;32.63;;;;;;;5.16;100.00;99405.59;4835632;29;20036;-73
2021/12/04 12:43:44;;;;;;;41.80;24.98;;;;;;;5.23;100.00;99401.09;4822464;28;20209;-73
2021/12/04 12:46:11;;;;;;;43.03;25.83;;;;;;;5.25;100.00;99399.81;4801959;29;20033;-70
2021/12/04 12:48:55;;;;;;;42.97;26.33;;;;;;;5.19;100.00;99389.16;4818974;28;20070;-73
2021/12/04 12:51:27;;;;;;;45.20;28.05;;;;;;;5.15;100.00;99398.63;4827981;28;20058;-72
2021/12/04 12:53:53;;;;;;;37.90;23.63;;;;;;;5.14;100.00;99405.00;4836301;29;20034;-73
2021/12/04 12:56:27;;;;;;;44.58;26.00;;;;;;;5.11;100.00;99406.25;4814351;29;20179;-72
2021/12/04 13:12:56;;;;;;;42.78;27.23;;;;;;;4.95;100.00;99391.56;4817767;29;20682;-73
2021/12/04 13:15:39;;;;;;;50.78;29.98;;;;;;;4.95;100.00;99390.72;4795200;29;20070;-72
2021/12/04 13:18:10;;;;;;;53.25;32.53;;;;;;;4.97;100.00;99386.81;4816899;29;20068;-72
2021/12/04 13:20:35;;;;;;;60.13;35.70;;;;;;;4.94;100.00;99387.22;4834108;29;20039;-73
2021/12/04 13:23:11;;;;;;;61.00;36.60;;;;;;;4.92;100.00;99381.31;4828809;29;20520;-72
2021/12/04 13:25:36;;;;;;;61.35;35.42;;;;;;;5.02;100.00;99381.66;4817279;29;20488;-72
2021/12/04 13:30:28;;;;;;;65.95;40.42;;;;;;;5.04;100.00;99365.44;4824123;29;20502;-73
2021/12/04 13:32:53;;;;;;;59.17;35.22;;;;;;;5.01;100.00;99377.34;4797407;29;20046;-74
2021/12/04 13:35:21;;;;;;;51.80;31.90;;;;;;;5.02;100.00;99376.34;4830864;29;20034;-72
2021/12/04 13:37:49;;;;;;;67.72;43.75;;;;;;;5.03;100.00;99379.81;4800632;29;20035;-73
2021/12/04 13:40:16;;;;;;;56.75;32.80;;;;;;;5.04;100.00;99368.09;4812579;29;20533;-74
2021/12/04 13:42:43;;;;;;;61.25;34.88;;;;;;;5.05;100.00;99363.56;4816831;29;20159;-72
2021/12/04 13:45:15;;;;;;;55.30;33.03;;;;;;;5.01;100.00;99361.31;4833977;29;20525;-72
2021/12/04 13:47:42;;;;;;;64.93;34.65;;;;;;;5.05;100.00;99355.56;4782497;29;20924;-71
2021/12/04 13:52:52;;;;;;;62.40;33.42;;;;;;;4.96;100.00;99371.84;4832122;29;22288;-71
2021/12/04 13:55:18;;;;;;;67.10;34.55;;;;;;;5.00;100.00;99365.03;4829194;28;20890;-73
2021/12/04 13:57:44;;;;;;;75.15;35.47;;;;;;;4.91;100.00;99362.81;4816755;29;20372;-73
2021/12/04 14:00:12;;;;;;;81.85;38.28;;;;;;;4.84;100.00;99368.19;4811016;29;20043;-73
2021/12/04 14:02:37;;;;;;;73.43;36.10;;;;;;;4.90;100.00;99362.00;4812657;29;20031;-73
2021/12/04 14:05:13;;;;;;;77.60;36.47;;;;;;;4.88;100.00;99357.91;4815488;29;20212;-71
2021/12/04 14:07:49;;;;;;;77.93;37.17;;;;;;;4.78;100.00;99350.38;4828227;29;20031;-73
2021/12/04 14:10:21;;;;;;;77.50;37.60;;;;;;;4.85;100.00;99353.81;4814327;29;20031;-72
2021/12/04 14:12:47;;;;;;;78.28;36.35;;;;;;;4.86;100.00;99350.13;4828792;29;20027;-72
2021/12/04 14:15:15;;;;;;;79.10;37.10;;;;;;;4.87;100.00;99354.41;4831211;29;20062;-72
2021/12/04 14:17:41;;;;;;;80.25;36.45;;;;;;;4.90;100.00;99350.50;4833550;29;20489;-72
2021/12/04 14:20:09;;;;;;;81.13;36.55;;;;;;;4.96;100.00;99339.00;4827707;28;21783;-74
2021/12/04 14:22:44;;;;;;;74.82;36.33;;;;;;;4.99;100.00;99341.25;4810312;29;20063;-72
2021/12/04 14:25:10;;;;;;;80.20;36.67;;;;;;;4.94;100.00;99335.72;4837591;29;20030;-72
2021/12/04 14:27:37;;;;;;;79.25;38.15;;;;;;;4.93;100.00;99337.56;4803281;29;22830;-72
2021/12/04 14:30:08;;;;;;;69.10;35.70;;;;;;;4.89;100.00;99330.22;4816981;29;20139;-72
2021/12/04 14:32:34;;;;;;;77.32;38.50;;;;;;;4.86;100.00;99331.44;4810295;28;22092;-72
2021/12/04 14:35:05;;;;;;;73.40;36.88;;;;;;;4.89;100.00;99323.03;4807972;29;20360;-72